createdAt,value
2018-03-24T00:00:18.118Z,4.10
2018-03-24T00:02:45.585Z,4.10
2018-03-24T00:05:13.036Z,4.20
2018-03-24T00:07:40.518Z,4.20
2018-03-24T00:10:07.933Z,4.30
2018-03-24T00:12:35.797Z,4.10
2018-03-24T00:15:03.224Z,4.10
2018-03-24T00:17:30.665Z,4.00
2018-03-24T00:19:58.155Z,4.00
2018-03-24T00:22:25.612Z,3.90
2018-03-24T00:24:53.068Z,3.90
2018-03-24T00:27:20.543Z,4.00
2018-03-24T00:29:47.953Z,4.00
2018-03-24T00:32:15.492Z,4.10
2018-03-24T00:34:42.932Z,4.10
2018-03-24T00:37:10.387Z,4.30
2018-03-24T00:39:37.820Z,4.60
2018-03-24T00:42:05.673Z,4.80
2018-03-24T00:44:33.143Z,4.80
2018-03-24T00:47:00.576Z,4.80
2018-03-24T00:49:28.009Z,5.00
2018-03-24T00:51:55.470Z,5.10
2018-03-24T00:54:22.919Z,5.10
2018-03-24T00:56:50.347Z,5.10
2018-03-24T00:59:17.772Z,5.10
2018-03-24T01:01:45.208Z,5.10
2018-03-24T01:04:12.649Z,5.10
2018-03-24T01:06:40.088Z,5.10
2018-03-24T01:09:07.516Z,5.00
2018-03-24T01:11:34.945Z,5.00
2018-03-24T01:14:02.385Z,4.90
2018-03-24T01:16:29.806Z,4.90
2018-03-24T01:18:57.240Z,4.80
2018-03-24T01:21:24.673Z,4.70
2018-03-24T01:23:52.116Z,4.70
2018-03-24T01:26:19.556Z,4.60
2018-03-24T01:28:47.001Z,4.60
2018-03-24T01:31:14.427Z,4.50
2018-03-24T01:33:41.865Z,4.40
2018-03-24T01:36:09.293Z,4.40
2018-03-24T01:38:36.730Z,4.30
2018-03-24T01:41:04.155Z,4.20
2018-03-24T01:43:31.588Z,4.20
2018-03-24T01:45:59.417Z,3.90
2018-03-24T01:48:26.852Z,3.90
2018-03-24T01:50:54.280Z,4.00
2018-03-24T01:53:24.388Z,4.00
2018-03-24T01:55:51.814Z,4.10
2018-03-24T01:58:19.244Z,4.00
2018-03-24T02:00:46.671Z,3.90
2018-03-24T02:03:14.106Z,4.10
2018-03-24T02:05:41.541Z,4.20
2018-03-24T02:08:08.969Z,4.40
2018-03-24T02:10:36.400Z,4.40
2018-03-24T02:13:03.836Z,4.30
2018-03-24T02:15:31.660Z,4.10
2018-03-24T02:17:59.104Z,4.10
2018-03-24T02:20:26.526Z,4.00
2018-03-24T02:22:54.352Z,3.80
2018-03-24T02:25:21.772Z,3.80
2018-03-24T02:27:49.224Z,4.00
2018-03-24T02:30:16.649Z,4.00
2018-03-24T02:32:44.094Z,4.20
2018-03-24T02:35:11.521Z,4.30
2018-03-24T02:37:38.974Z,4.50
2018-03-24T02:40:06.402Z,4.60
2018-03-24T02:42:33.838Z,4.60
2018-03-24T02:45:01.669Z,4.70
2018-03-24T02:47:29.103Z,4.70
2018-03-24T02:49:56.520Z,4.60
2018-03-24T02:52:23.967Z,4.60
2018-03-24T02:54:51.789Z,4.70
2018-03-24T02:57:19.229Z,4.70
2018-03-24T02:59:46.661Z,4.70
2018-03-24T03:02:14.096Z,4.80
2018-03-24T03:04:41.930Z,4.80
2018-03-24T03:07:09.384Z,4.80
2018-03-24T03:09:36.804Z,4.80
2018-03-24T03:12:04.243Z,4.70
2018-03-24T03:14:32.070Z,4.40
2018-03-24T03:16:59.498Z,4.40
2018-03-24T03:19:26.927Z,4.40
2018-03-24T03:21:54.388Z,4.30
2018-03-24T03:24:21.786Z,3.90
2018-03-24T03:26:49.205Z,3.60
2018-03-24T03:29:16.636Z,3.40
2018-03-24T03:31:44.453Z,3.10
2018-03-24T03:34:11.881Z,3.10
2018-03-24T03:36:39.308Z,2.90
2018-03-24T03:39:06.778Z,2.70
2018-03-24T03:41:34.632Z,2.50
2018-03-24T03:44:02.461Z,2.50
2018-03-24T03:46:29.880Z,2.50
2018-03-24T03:48:57.308Z,2.40
2018-03-24T03:51:24.730Z,2.30
2018-03-24T03:53:52.160Z,2.30
2018-03-24T03:56:19.593Z,2.10
2018-03-24T03:58:47.425Z,2.10
2018-03-24T04:01:14.845Z,2.10
2018-03-24T04:03:42.274Z,2.20
2018-03-24T04:06:09.697Z,2.50
2018-03-24T04:08:37.124Z,2.80
2018-03-24T04:11:04.552Z,2.60
2018-03-24T04:13:31.996Z,2.50
2018-03-24T04:15:59.804Z,2.10
2018-03-24T04:18:27.908Z,2.10
2018-03-24T04:20:55.341Z,2.10
2018-03-24T04:23:22.773Z,2.10
2018-03-24T04:25:50.217Z,2.00
2018-03-24T04:28:17.645Z,2.00
2018-03-24T04:30:45.069Z,2.00
2018-03-24T04:33:12.504Z,2.10
2018-03-24T04:35:39.933Z,2.30
2018-03-24T04:38:07.364Z,2.20
2018-03-24T04:40:34.795Z,2.00
2018-03-24T04:43:02.228Z,2.20
2018-03-24T04:45:29.664Z,2.50
2018-03-24T04:47:57.107Z,2.60
2018-03-24T04:50:24.535Z,2.70
2018-03-24T04:52:51.964Z,2.60
2018-03-24T04:55:19.416Z,2.30
2018-03-24T04:57:46.853Z,2.00
2018-03-24T05:00:14.284Z,1.70
2018-03-24T05:02:42.100Z,1.20
2018-03-24T05:05:09.537Z,1.20
2018-03-24T05:07:36.962Z,1.10
2018-03-24T05:10:04.400Z,1.00
2018-03-24T05:12:31.825Z,0.90
2018-03-24T05:14:59.263Z,1.00
2018-03-24T05:17:26.688Z,0.90
2018-03-24T05:19:54.508Z,0.80
2018-03-24T05:22:21.919Z,0.80
2018-03-24T05:24:49.352Z,0.80
2018-03-24T05:27:16.772Z,0.90
2018-03-24T05:29:44.209Z,1.00
2018-03-24T05:32:11.632Z,1.20
2018-03-24T05:34:39.469Z,2.00
2018-03-24T05:37:06.889Z,2.00
2018-03-24T05:39:34.333Z,2.10
2018-03-24T05:42:01.762Z,2.30
2018-03-24T05:44:29.201Z,2.40
2018-03-24T05:46:56.620Z,2.40
2018-03-24T05:49:24.061Z,2.40
2018-03-24T05:51:51.502Z,2.40
2018-03-24T05:54:19.324Z,2.40
2018-03-24T05:56:46.753Z,2.50
2018-03-24T05:59:14.190Z,2.50
2018-03-24T06:01:41.620Z,2.50
2018-03-24T06:04:09.044Z,2.50
2018-03-24T06:06:36.475Z,2.50
2018-03-24T06:09:03.912Z,2.60
2018-03-24T06:11:31.338Z,2.50
2018-03-24T06:13:58.777Z,2.50
2018-03-24T06:16:26.208Z,2.50
2018-03-24T06:18:54.224Z,2.50
2018-03-24T06:21:21.660Z,2.50
2018-03-24T06:23:49.089Z,2.60
2018-03-24T06:26:16.528Z,2.50
2018-03-24T06:28:43.960Z,2.60
2018-03-24T06:31:21.691Z,2.60
2018-03-24T06:33:49.124Z,2.60
2018-03-24T06:36:19.339Z,2.80
2018-03-24T06:38:46.786Z,2.80
2018-03-24T06:41:14.209Z,2.90
2018-03-24T06:43:41.656Z,2.80
2018-03-24T06:46:09.104Z,2.90
2018-03-24T06:48:36.536Z,2.90
2018-03-24T06:51:03.965Z,3.00
2018-03-24T06:53:31.790Z,3.10
2018-03-24T06:55:59.212Z,3.10
2018-03-24T06:58:26.655Z,3.10
2018-03-24T07:00:54.469Z,3.30
2018-03-24T07:03:21.906Z,3.30
2018-03-24T07:05:49.336Z,3.40
2018-03-24T07:08:17.168Z,3.60
2018-03-24T07:10:44.616Z,3.60
2018-03-24T07:13:12.085Z,3.60
2018-03-24T07:15:39.459Z,3.70
2018-03-24T07:18:06.883Z,3.80
2018-03-24T07:20:34.320Z,3.80
2018-03-24T07:23:01.801Z,3.90
2018-03-24T07:25:29.248Z,4.00
2018-03-24T07:27:57.536Z,4.10
2018-03-24T07:30:24.979Z,4.20
2018-03-24T07:32:52.445Z,4.20
2018-03-24T07:35:19.888Z,4.10
2018-03-24T07:37:47.430Z,4.10
2018-03-24T07:40:14.918Z,4.00
2018-03-24T07:42:42.342Z,4.00
2018-03-24T07:45:09.808Z,4.00
2018-03-24T07:47:37.270Z,4.00
2018-03-24T07:50:04.717Z,4.00
2018-03-24T07:52:32.158Z,4.00
2018-03-24T07:54:59.627Z,4.00
2018-03-24T07:57:27.169Z,4.10
2018-03-24T07:59:55.654Z,4.20
2018-03-24T08:02:23.474Z,4.40
2018-03-24T08:04:50.920Z,4.40
2018-03-24T08:07:18.446Z,4.50
2018-03-24T08:09:45.888Z,4.60
2018-03-24T08:12:13.353Z,4.60
2018-03-24T08:14:40.804Z,4.60
2018-03-24T08:17:08.236Z,4.60
2018-03-24T08:19:36.243Z,4.70
2018-03-24T08:22:03.685Z,4.70
2018-03-24T08:24:31.257Z,4.80
2018-03-24T08:26:58.651Z,4.90
2018-03-24T08:29:27.099Z,5.00
2018-03-24T08:31:54.617Z,5.00
2018-03-24T08:34:22.165Z,5.00
2018-03-24T08:36:50.013Z,5.20
2018-03-24T08:39:17.479Z,5.20
2018-03-24T08:41:44.916Z,5.30
2018-03-24T08:44:12.348Z,5.30
2018-03-24T08:46:39.776Z,5.40
2018-03-24T08:49:07.206Z,5.50
2018-03-24T08:51:34.823Z,5.60
2018-03-24T08:54:02.242Z,5.70
2018-03-24T08:56:29.670Z,5.80
2018-03-24T08:58:57.126Z,5.90
2018-03-24T09:01:24.597Z,6.00
2018-03-24T09:03:52.804Z,6.00
2018-03-24T09:06:20.243Z,6.00
2018-03-24T09:08:48.142Z,6.10
2018-03-24T09:11:15.514Z,6.10
2018-03-24T09:13:42.936Z,6.20
2018-03-24T09:16:10.375Z,6.30
2018-03-24T09:18:38.192Z,6.50
2018-03-24T09:21:05.636Z,6.50
2018-03-24T09:23:33.064Z,6.60
2018-03-24T09:26:00.899Z,6.70
2018-03-24T09:28:28.317Z,6.70
2018-03-24T09:30:55.767Z,6.80
2018-03-24T09:33:23.192Z,6.80
2018-03-24T09:35:50.653Z,6.90
2018-03-24T09:38:18.473Z,7.20
2018-03-24T09:40:45.930Z,7.20
2018-03-24T09:43:13.356Z,7.20
2018-03-24T09:45:40.806Z,7.30
2018-03-24T09:48:08.225Z,7.30
2018-03-24T09:50:36.052Z,7.50
2018-03-24T09:53:03.486Z,7.50
2018-03-24T09:55:30.917Z,7.60
2018-03-24T09:57:58.349Z,7.60
2018-03-24T10:00:25.794Z,7.70
2018-03-24T10:02:53.228Z,7.80
2018-03-24T10:05:20.673Z,7.90
2018-03-24T10:07:48.108Z,8.20
2018-03-24T10:10:15.537Z,8.30
2018-03-24T10:12:43.361Z,8.50
2018-03-24T10:15:10.812Z,8.50
2018-03-24T10:17:38.248Z,8.60
2018-03-24T10:20:05.696Z,8.60
2018-03-24T10:22:44.829Z,8.70
2018-03-24T10:25:12.264Z,8.90
2018-03-24T10:27:40.119Z,9.10
2018-03-24T10:30:07.578Z,9.10
2018-03-24T10:32:34.997Z,9.20
2018-03-24T10:35:07.388Z,9.30
2018-03-24T10:37:40.602Z,9.40
2018-03-24T10:40:08.029Z,9.40
2018-03-24T10:42:35.491Z,9.40
2018-03-24T10:45:02.968Z,9.40
2018-03-24T10:47:30.397Z,9.40
2018-03-24T10:49:57.824Z,9.50
2018-03-24T10:52:25.282Z,9.70
2018-03-24T10:54:53.089Z,10.10
2018-03-24T10:57:20.540Z,10.10
2018-03-24T10:59:47.982Z,10.30
2018-03-24T11:02:15.408Z,10.40
2018-03-24T11:04:43.728Z,10.50
2018-03-24T11:07:11.245Z,10.60
2018-03-24T11:09:38.682Z,10.40
2018-03-24T11:12:06.510Z,10.30
2018-03-24T11:14:33.945Z,10.30
2018-03-24T11:17:01.392Z,10.30
2018-03-24T11:19:28.902Z,10.20
2018-03-24T11:21:56.336Z,10.20
2018-03-24T11:24:23.777Z,10.20
2018-03-24T11:26:51.219Z,10.10
2018-03-24T11:29:18.686Z,10.10
2018-03-24T11:31:46.148Z,10.30
2018-03-24T11:34:13.598Z,10.40
2018-03-24T11:36:41.036Z,10.40
2018-03-24T11:39:08.516Z,10.30
2018-03-24T11:41:35.945Z,10.30
2018-03-24T11:44:03.374Z,10.50
2018-03-24T11:46:30.821Z,10.70
2018-03-24T11:48:58.257Z,10.70
2018-03-24T11:51:25.718Z,10.90
2018-03-24T11:53:53.148Z,10.90
2018-03-24T11:56:21.276Z,11.00
2018-03-24T11:58:48.716Z,11.00
2018-03-24T12:01:16.163Z,11.00
2018-03-24T12:03:43.605Z,11.00
2018-03-24T12:06:11.053Z,10.90
2018-03-24T12:08:38.480Z,10.90
2018-03-24T12:11:05.925Z,11.00
2018-03-24T12:13:33.352Z,11.00
2018-03-24T12:16:00.796Z,11.00
2018-03-24T12:18:28.238Z,11.00
2018-03-24T12:20:55.686Z,11.00
2018-03-24T12:23:23.108Z,11.20
2018-03-24T12:25:50.556Z,11.10
2018-03-24T12:28:18.380Z,11.10
2018-03-24T12:30:45.821Z,11.10
2018-03-24T12:33:13.258Z,11.20
2018-03-24T12:35:40.694Z,11.20
2018-03-24T12:38:08.520Z,11.00
2018-03-24T12:40:35.965Z,11.00
2018-03-24T12:43:03.398Z,10.90
2018-03-24T12:45:30.838Z,10.80
2018-03-24T12:47:58.663Z,10.60
2018-03-24T12:50:26.101Z,10.60
2018-03-24T12:52:53.524Z,10.60
2018-03-24T12:55:20.956Z,10.90
2018-03-24T12:57:48.795Z,11.00
2018-03-24T13:00:16.229Z,11.10
2018-03-24T13:02:43.668Z,11.00
2018-03-24T13:05:11.136Z,11.00
2018-03-24T13:07:38.576Z,11.00
2018-03-24T13:10:06.037Z,11.10
2018-03-24T13:12:33.506Z,11.00
2018-03-24T13:15:00.944Z,11.10
2018-03-24T13:17:28.394Z,11.10
2018-03-24T13:19:55.825Z,11.10
2018-03-24T13:22:23.266Z,11.10
2018-03-24T13:24:50.696Z,11.20
2018-03-24T13:27:18.142Z,11.20
2018-03-24T13:29:45.570Z,11.40
2018-03-24T13:32:13.013Z,11.30
2018-03-24T13:34:40.840Z,11.20
2018-03-24T13:37:08.279Z,11.20
2018-03-24T13:39:35.712Z,11.10
2018-03-24T13:42:03.143Z,11.10
2018-03-24T13:44:30.979Z,11.00
2018-03-24T13:46:58.426Z,11.00
2018-03-24T13:49:25.848Z,10.90
2018-03-24T13:51:53.290Z,11.00
2018-03-24T13:54:20.737Z,10.90
2018-03-24T13:56:48.579Z,10.90
2018-03-24T13:59:16.012Z,10.90
2018-03-24T14:01:43.477Z,11.00
2018-03-24T14:04:10.906Z,11.10
2018-03-24T14:06:38.353Z,11.10
2018-03-24T14:09:05.785Z,11.00
2018-03-24T14:11:33.225Z,11.00
2018-03-24T14:14:00.664Z,11.00
2018-03-24T14:16:28.095Z,10.80
2018-03-24T14:18:55.528Z,10.80
2018-03-24T14:21:22.969Z,10.80
2018-03-24T14:23:51.743Z,11.00
2018-03-24T14:26:19.137Z,11.00
2018-03-24T14:28:46.581Z,11.00
2018-03-24T14:31:14.020Z,11.00
2018-03-24T14:33:41.863Z,11.10
2018-03-24T14:36:09.311Z,11.10
2018-03-24T14:38:36.751Z,11.20
2018-03-24T14:41:04.197Z,11.20
2018-03-24T14:43:31.629Z,11.10
2018-03-24T14:45:59.073Z,11.00
2018-03-24T14:48:26.552Z,11.00
2018-03-24T14:50:53.998Z,11.00
2018-03-24T14:53:24.730Z,10.90
2018-03-24T14:55:52.238Z,11.00
2018-03-24T14:58:19.901Z,11.00
2018-03-24T15:00:47.368Z,10.90
2018-03-24T15:03:14.836Z,10.90
2018-03-24T15:05:42.312Z,10.90
2018-03-24T15:08:10.260Z,11.00
2018-03-24T15:10:37.808Z,11.00
2018-03-24T15:13:05.680Z,11.10
2018-03-24T15:15:33.273Z,11.20
2018-03-24T15:18:02.053Z,11.20
2018-03-24T15:20:29.520Z,11.20
2018-03-24T15:22:56.979Z,11.20
2018-03-24T15:25:24.822Z,11.30
2018-03-24T15:27:52.270Z,11.30
2018-03-24T15:30:31.412Z,11.30
2018-03-24T15:33:11.227Z,11.60
2018-03-24T15:35:38.687Z,11.60
2018-03-24T15:38:06.119Z,11.60
2018-03-24T15:40:33.577Z,11.60
2018-03-24T15:43:01.017Z,11.70
2018-03-24T15:45:28.466Z,11.60
2018-03-24T15:47:56.361Z,11.60
2018-03-24T15:50:23.850Z,11.60
2018-03-24T15:52:51.338Z,11.60
2018-03-24T15:55:19.206Z,11.50
2018-03-24T15:57:46.694Z,11.50
2018-03-24T16:00:14.241Z,11.50
2018-03-24T16:02:41.693Z,11.40
2018-03-24T16:05:09.145Z,11.30
2018-03-24T16:07:36.675Z,11.30
2018-03-24T16:10:04.137Z,11.40
2018-03-24T16:12:31.599Z,11.40
2018-03-24T16:14:59.045Z,11.40
2018-03-24T16:17:26.577Z,11.30
2018-03-24T16:19:54.080Z,11.40
2018-03-24T16:22:21.540Z,11.40
2018-03-24T16:24:49.368Z,11.30
2018-03-24T16:27:16.820Z,11.30
2018-03-24T16:29:45.361Z,11.30
2018-03-24T16:32:12.791Z,11.20
2018-03-24T16:34:40.644Z,11.10
2018-03-24T16:37:08.479Z,11.00
2018-03-24T16:39:35.975Z,11.00
2018-03-24T16:42:03.407Z,11.00
2018-03-24T16:44:30.869Z,10.90
2018-03-24T16:46:58.319Z,10.80
2018-03-24T16:49:25.745Z,10.80
2018-03-24T16:51:53.180Z,10.80
2018-03-24T16:54:20.609Z,10.70
2018-03-24T16:56:48.432Z,10.60
2018-03-24T16:59:15.914Z,10.60
2018-03-24T17:01:43.357Z,10.60
2018-03-24T17:04:10.817Z,10.60
2018-03-24T17:06:38.252Z,10.50
2018-03-24T17:09:05.721Z,10.30
2018-03-24T17:11:33.123Z,10.10
2018-03-24T17:14:00.961Z,9.80
2018-03-24T17:16:28.432Z,9.80
2018-03-24T17:18:55.855Z,9.70
2018-03-24T17:33:31.394Z,9.40
2018-03-24T17:35:58.828Z,9.40
2018-03-24T17:38:26.313Z,9.30
2018-03-24T17:40:53.732Z,9.20
2018-03-24T17:43:21.168Z,9.10
2018-03-24T17:45:48.605Z,9.00
2018-03-24T17:48:16.050Z,9.00
2018-03-24T17:50:43.477Z,8.90
2018-03-24T17:53:10.972Z,8.80
2018-03-24T17:55:38.424Z,8.60
2018-03-24T17:58:05.889Z,8.50
2018-03-24T18:00:33.323Z,8.40
2018-03-24T18:03:00.741Z,8.40
2018-03-24T18:05:28.164Z,8.30
2018-03-24T18:07:56.000Z,8.20
2018-03-24T18:10:23.438Z,8.20
2018-03-24T18:12:50.889Z,8.10
2018-03-24T18:15:18.321Z,8.00
2018-03-24T18:17:45.749Z,8.00
2018-03-24T18:20:13.180Z,7.90
2018-03-24T18:22:40.620Z,7.80
2018-03-24T18:25:08.048Z,7.70
2018-03-24T18:27:35.500Z,7.60
2018-03-24T18:30:02.934Z,7.60
2018-03-24T18:32:30.761Z,7.30
2018-03-24T18:34:58.196Z,7.30
2018-03-24T18:37:25.628Z,7.20
2018-03-24T18:39:53.070Z,7.10
2018-03-24T18:42:20.492Z,6.90
2018-03-24T18:44:47.941Z,6.80
2018-03-24T18:47:15.378Z,6.70
2018-03-24T18:49:42.812Z,6.60
2018-03-24T18:52:10.240Z,6.50
2018-03-24T18:54:38.308Z,6.40
2018-03-24T18:57:05.736Z,6.30
2018-03-24T18:59:33.163Z,6.20
2018-03-24T19:02:00.588Z,6.10
2018-03-24T19:04:28.417Z,5.90
2018-03-24T19:06:55.850Z,5.90
2018-03-24T19:09:23.289Z,5.70
2018-03-24T19:11:50.701Z,5.60
2018-03-24T19:14:18.138Z,5.50
2018-03-24T19:16:45.565Z,5.50
2018-03-24T19:19:13.009Z,5.40
2018-03-24T19:21:40.444Z,5.30
2018-03-24T19:24:07.860Z,5.30
2018-03-24T19:26:35.340Z,5.20
2018-03-24T19:42:52.261Z,4.60
2018-03-24T19:45:19.646Z,4.60
2018-03-24T19:47:47.120Z,4.60
2018-03-24T19:50:14.561Z,4.50
2018-03-24T19:52:42.135Z,4.50
2018-03-24T19:55:09.567Z,4.50
2018-03-24T19:57:36.995Z,4.50
2018-03-24T20:00:04.428Z,4.40
2018-03-24T20:02:31.860Z,4.30
2018-03-24T20:04:59.291Z,4.20
2018-03-24T20:07:26.771Z,4.10
2018-03-24T20:09:55.292Z,4.00
2018-03-24T20:12:22.715Z,4.00
2018-03-24T20:14:50.150Z,3.90
2018-03-24T20:17:17.610Z,3.90
2018-03-24T20:19:45.035Z,3.80
2018-03-24T20:22:12.457Z,3.70
2018-03-24T20:24:39.886Z,3.60
2018-03-24T20:27:07.322Z,3.60
2018-03-24T20:29:35.143Z,3.40
2018-03-24T20:32:02.593Z,3.40
2018-03-24T20:34:30.052Z,3.40
2018-03-24T20:36:57.488Z,3.30
2018-03-24T20:39:24.893Z,3.30
2018-03-24T20:41:52.709Z,3.00
2018-03-24T20:44:20.139Z,3.00
2018-03-24T20:46:47.568Z,3.00
2018-03-24T20:49:15.389Z,2.90
2018-03-24T20:51:42.813Z,2.90
2018-03-24T20:54:10.240Z,2.90
2018-03-24T20:56:37.658Z,2.80
2018-03-24T20:59:05.120Z,2.70
2018-03-24T21:01:32.544Z,2.80
2018-03-24T21:04:00.016Z,2.80
2018-03-24T21:06:27.428Z,2.70
2018-03-24T21:08:54.868Z,2.70
2018-03-24T21:11:22.296Z,2.80
2018-03-24T21:13:49.764Z,2.80
2018-03-24T21:16:17.214Z,2.70
2018-03-24T21:18:44.609Z,2.70
2018-03-24T21:21:12.441Z,2.80
2018-03-24T21:23:39.873Z,2.80
2018-03-24T21:26:07.291Z,2.70
2018-03-24T21:28:34.722Z,2.70
2018-03-24T21:31:02.140Z,2.60
2018-03-24T21:33:29.573Z,2.50
2018-03-24T21:35:57.396Z,2.40
2018-03-24T21:38:24.809Z,2.40
2018-03-24T21:40:52.253Z,2.30
2018-03-24T21:43:19.678Z,2.30
2018-03-24T21:45:47.091Z,2.30
2018-03-24T21:48:14.524Z,2.20
2018-03-24T21:50:42.382Z,2.10
2018-03-24T21:53:09.805Z,2.10
2018-03-24T21:55:37.252Z,1.90
2018-03-24T21:58:04.673Z,1.80
2018-03-24T22:00:32.123Z,1.80
2018-03-24T22:02:59.537Z,1.70
2018-03-24T22:05:26.973Z,1.70
2018-03-24T22:07:54.395Z,1.60
2018-03-24T22:10:21.816Z,1.60
2018-03-24T22:12:49.635Z,1.60
2018-03-24T22:15:17.084Z,1.60
2018-03-24T22:17:44.498Z,1.60
2018-03-24T22:20:11.924Z,1.40
2018-03-24T22:22:39.363Z,1.40
2018-03-24T22:25:06.799Z,1.40
2018-03-24T22:27:34.218Z,1.30
2018-03-24T22:30:01.632Z,1.30
2018-03-24T22:32:29.059Z,1.40
2018-03-24T22:34:56.486Z,1.40
2018-03-24T22:39:56.832Z,1.30
2018-03-24T22:42:24.641Z,1.20
2018-03-24T22:44:52.077Z,1.20
2018-03-24T22:47:19.497Z,1.20
2018-03-24T22:49:46.921Z,1.10
2018-03-24T22:52:14.350Z,1.10
2018-03-24T22:54:41.762Z,1.00
2018-03-24T22:57:09.188Z,1.00
2018-03-24T22:59:36.612Z,0.90
2018-03-24T23:02:04.045Z,1.00
2018-03-24T23:04:31.465Z,0.90
2018-03-24T23:06:58.884Z,1.00
2018-03-24T23:09:26.313Z,1.00
2018-03-24T23:11:53.736Z,1.60
2018-03-24T23:14:21.156Z,2.10
2018-03-24T23:16:48.584Z,2.40
2018-03-24T23:19:16.003Z,2.50
2018-03-24T23:21:43.436Z,2.40
2018-03-24T23:24:10.852Z,2.10
2018-03-24T23:26:38.682Z,1.40
2018-03-24T23:29:06.115Z,1.40
2018-03-24T23:31:33.541Z,1.20
2018-03-24T23:34:00.960Z,1.00
2018-03-24T23:36:28.379Z,0.80
2018-03-24T23:38:55.803Z,0.60
2018-03-24T23:41:23.626Z,0.50
2018-03-24T23:43:51.059Z,0.50
2018-03-24T23:46:18.472Z,0.50
2018-03-24T23:48:45.895Z,0.50
2018-03-24T23:51:14.314Z,0.50
2018-03-24T23:53:42.130Z,0.40
2018-03-24T23:56:09.556Z,0.40
2018-03-24T23:58:36.972Z,0.40
